createdAt,value
2023-05-08T00:01:30.040Z,54.38
2023-05-08T00:03:57.277Z,54.32
2023-05-08T00:06:24.635Z,54.80
2023-05-08T00:08:52.357Z,54.62
2023-05-08T00:11:19.245Z,54.49
2023-05-08T00:13:46.158Z,54.25
2023-05-08T00:16:13.289Z,54.35
2023-05-08T00:18:40.333Z,54.70
2023-05-08T00:21:07.433Z,54.43
2023-05-08T00:23:34.507Z,54.54
2023-05-08T00:26:01.535Z,54.27
2023-05-08T00:28:28.395Z,54.69
2023-05-08T00:30:55.227Z,54.97
2023-05-08T00:33:22.131Z,54.64
2023-05-08T00:35:49.021Z,54.78
2023-05-08T00:38:15.845Z,54.99
2023-05-08T00:40:43.416Z,55.07
2023-05-08T00:43:10.304Z,54.83
2023-05-08T00:45:40.028Z,54.71
2023-05-08T00:48:07.596Z,54.71
2023-05-08T00:50:35.282Z,54.88
2023-05-08T00:53:04.253Z,55.00
2023-05-08T00:55:32.875Z,54.55
2023-05-08T00:58:00.196Z,54.80
2023-05-08T01:00:27.367Z,54.82
2023-05-08T01:02:54.351Z,54.78
2023-05-08T01:05:21.503Z,54.72
2023-05-08T01:07:48.639Z,54.58
2023-05-08T01:10:16.346Z,54.78
2023-05-08T01:13:29.122Z,54.93
2023-05-08T01:16:09.741Z,54.54
2023-05-08T01:18:47.093Z,54.99
2023-05-08T01:21:43.572Z,54.61
2023-05-08T01:24:42.232Z,54.95
2023-05-08T01:28:05.622Z,54.90
2023-05-08T01:31:00.337Z,55.17
2023-05-08T01:33:35.782Z,54.90
2023-05-08T01:36:34.226Z,55.11
2023-05-08T01:39:21.370Z,55.23
2023-05-08T01:42:14.190Z,55.18
2023-05-08T01:45:07.434Z,55.07
2023-05-08T01:47:38.376Z,55.08
2023-05-08T01:50:15.344Z,55.25
2023-05-08T01:52:58.274Z,55.00
2023-05-08T01:55:32.012Z,55.07
2023-05-08T01:57:59.743Z,55.05
2023-05-08T02:00:28.499Z,54.97
2023-05-08T02:02:58.070Z,55.26
2023-05-08T02:05:27.546Z,55.04
2023-05-08T02:07:55.457Z,55.06
2023-05-08T02:10:25.668Z,55.06
2023-05-08T02:12:53.722Z,55.17
2023-05-08T02:15:22.418Z,54.97
2023-05-08T02:17:50.743Z,54.87
2023-05-08T02:20:20.148Z,54.88
2023-05-08T02:22:50.568Z,54.96
2023-05-08T02:25:18.246Z,54.77
2023-05-08T02:27:49.660Z,55.40
2023-05-08T02:30:18.455Z,54.87
2023-05-08T02:32:47.978Z,55.04
2023-05-08T02:35:19.902Z,55.18
2023-05-08T02:37:53.924Z,55.32
2023-05-08T02:40:22.847Z,55.36
2023-05-08T02:42:50.369Z,55.08
2023-05-08T02:45:17.404Z,55.25
2023-05-08T02:48:11.067Z,55.12
2023-05-08T02:51:21.074Z,55.21
2023-05-08T02:53:56.505Z,55.17
2023-05-08T02:56:49.903Z,55.16
2023-05-08T02:59:30.289Z,55.31
2023-05-08T03:02:08.465Z,55.02
2023-05-08T03:04:43.330Z,55.39
2023-05-08T03:07:11.125Z,55.11
2023-05-08T03:09:49.004Z,54.98
2023-05-08T03:12:22.283Z,55.03
2023-05-08T03:15:07.713Z,54.98
2023-05-08T03:17:39.049Z,55.08
2023-05-08T03:20:10.347Z,54.98
2023-05-08T03:22:38.726Z,55.20
2023-05-08T03:25:09.112Z,55.15
2023-05-08T03:27:38.292Z,55.21
2023-05-08T03:30:06.416Z,55.15
2023-05-08T03:32:37.105Z,55.15
2023-05-08T03:35:05.577Z,55.22
2023-05-08T03:37:32.711Z,55.01
2023-05-08T03:39:59.902Z,55.00
2023-05-08T03:42:27.380Z,55.08
2023-05-08T03:44:54.420Z,55.09
2023-05-08T03:47:24.148Z,55.04
2023-05-08T03:49:51.482Z,55.11
2023-05-08T03:52:18.617Z,55.19
2023-05-08T03:54:45.628Z,55.44
2023-05-08T03:57:13.126Z,55.51
2023-05-08T04:00:02.536Z,55.55
2023-05-08T04:02:57.646Z,55.18
2023-05-08T04:05:37.576Z,55.42
2023-05-08T04:08:40.750Z,55.45
2023-05-08T04:11:37.471Z,55.33
2023-05-08T04:14:08.317Z,55.15
2023-05-08T04:16:44.572Z,55.16
2023-05-08T04:19:23.612Z,55.34
2023-05-08T04:21:51.470Z,55.35
2023-05-08T04:24:20.946Z,55.45
2023-05-08T04:26:48.844Z,55.33
2023-05-08T04:29:17.753Z,55.58
2023-05-08T04:31:45.711Z,55.56
2023-05-08T04:34:13.126Z,55.80
2023-05-08T04:36:40.241Z,56.02
2023-05-08T04:39:07.933Z,56.03
2023-05-08T04:41:35.488Z,55.91
2023-05-08T04:44:05.395Z,55.72
2023-05-08T04:46:32.735Z,55.68
2023-05-08T04:48:59.685Z,55.70
2023-05-08T04:51:29.359Z,55.75
2023-05-08T04:53:56.232Z,56.05
2023-05-08T04:56:23.158Z,55.79
2023-05-08T04:58:51.035Z,55.85
2023-05-08T05:01:18.358Z,56.21
2023-05-08T05:03:45.677Z,55.88
2023-05-08T05:06:13.269Z,55.87
2023-05-08T05:08:40.142Z,56.10
2023-05-08T05:11:07.267Z,56.08
2023-05-08T05:13:34.100Z,56.14
2023-05-08T05:16:01.125Z,55.87
2023-05-08T05:18:28.425Z,56.14
2023-05-08T05:20:59.002Z,55.88
2023-05-08T05:23:26.158Z,55.97
2023-05-08T05:25:53.243Z,56.09
2023-05-08T05:28:20.262Z,55.80
2023-05-08T05:30:48.388Z,55.87
2023-05-08T05:33:15.331Z,55.67
2023-05-08T05:35:42.186Z,55.79
2023-05-08T05:38:09.060Z,55.93
2023-05-08T05:40:35.898Z,55.75
2023-05-08T05:43:02.807Z,55.74
2023-05-08T05:45:31.853Z,55.57
2023-05-08T05:48:00.488Z,55.51
2023-05-08T05:50:28.178Z,55.72
2023-05-08T05:52:56.601Z,55.72
2023-05-08T05:55:23.543Z,55.55
2023-05-08T05:57:51.287Z,55.77
2023-05-08T06:00:19.005Z,55.47
2023-05-08T06:02:50.148Z,55.53
2023-05-08T06:05:19.615Z,55.76
2023-05-08T06:07:46.578Z,55.48
2023-05-08T06:10:13.523Z,55.76
2023-05-08T06:12:40.576Z,56.11
2023-05-08T06:15:09.348Z,55.95
2023-05-08T06:17:36.503Z,55.63
2023-05-08T06:20:03.987Z,55.68
2023-05-08T06:22:30.853Z,55.91
2023-05-08T06:24:57.680Z,56.10
2023-05-08T06:27:25.157Z,55.98
2023-05-08T06:29:53.306Z,55.99
2023-05-08T06:32:21.115Z,55.92
2023-05-08T06:34:48.585Z,55.52
2023-05-08T06:37:15.521Z,55.62
2023-05-08T06:39:42.409Z,55.70
2023-05-08T06:42:09.430Z,55.68
2023-05-08T06:44:40.626Z,55.79
2023-05-08T06:47:08.253Z,55.97
2023-05-08T06:49:38.255Z,55.81
2023-05-08T06:52:05.147Z,55.92
2023-05-08T06:54:31.972Z,55.91
2023-05-08T06:56:58.800Z,55.52
2023-05-08T06:59:25.708Z,55.68
2023-05-08T07:01:52.790Z,56.12
2023-05-08T07:04:19.605Z,55.95
2023-05-08T07:06:46.546Z,56.04
2023-05-08T07:09:13.471Z,55.84
2023-05-08T07:11:40.319Z,55.88
2023-05-08T07:14:07.132Z,56.06
2023-05-08T07:16:34.490Z,55.97
2023-05-08T07:19:01.366Z,55.65
2023-05-08T07:21:29.362Z,55.71
2023-05-08T07:23:56.200Z,55.57
2023-05-08T07:26:23.119Z,55.61
2023-05-08T07:28:50.817Z,55.72
2023-05-08T07:31:17.697Z,55.20
2023-05-08T07:33:44.622Z,55.49
2023-05-08T07:36:11.933Z,55.21
2023-05-08T07:38:38.804Z,55.37
2023-05-08T07:41:05.934Z,55.46
2023-05-08T07:43:32.994Z,55.35
2023-05-08T07:46:00.502Z,55.48
2023-05-08T07:48:27.353Z,54.87
2023-05-08T07:50:54.168Z,55.06
2023-05-08T07:53:21.041Z,55.30
2023-05-08T07:55:47.871Z,54.85
2023-05-08T07:58:14.673Z,54.55
2023-05-08T08:00:41.474Z,54.33
2023-05-08T08:03:08.271Z,54.45
2023-05-08T08:05:35.284Z,54.06
2023-05-08T08:08:02.176Z,53.66
2023-05-08T08:10:29.220Z,53.76
2023-05-08T08:12:56.183Z,53.14
2023-05-08T08:15:23.020Z,52.85
2023-05-08T08:17:49.900Z,52.85
2023-05-08T08:20:16.920Z,52.50
2023-05-08T08:22:43.728Z,52.98
2023-05-08T08:25:11.154Z,52.89
2023-05-08T08:27:38.134Z,52.84
2023-05-08T08:30:16.241Z,52.81
2023-05-08T08:32:44.797Z,53.05
2023-05-08T08:35:12.027Z,52.80
2023-05-08T08:37:39.488Z,52.64
2023-05-08T08:40:07.478Z,52.62
2023-05-08T08:42:34.479Z,52.53
2023-05-08T08:45:01.613Z,52.75
2023-05-08T08:47:30.157Z,52.52
2023-05-08T08:50:03.096Z,52.76
2023-05-08T08:52:54.326Z,52.47
2023-05-08T08:55:23.341Z,52.15
2023-05-08T08:58:21.315Z,52.59
2023-05-08T09:00:49.757Z,52.44
2023-05-08T09:03:17.217Z,52.36
2023-05-08T09:05:45.386Z,52.55
2023-05-08T09:08:12.799Z,52.57
2023-05-08T09:10:39.704Z,52.68
2023-05-08T09:13:06.744Z,52.42
2023-05-08T09:15:34.083Z,52.37
2023-05-08T09:18:04.313Z,52.18
2023-05-08T09:20:31.449Z,52.18
2023-05-08T09:23:01.516Z,52.11
2023-05-08T09:25:45.814Z,52.29
2023-05-08T09:28:30.713Z,52.45
2023-05-08T09:30:59.696Z,52.19
2023-05-08T09:33:29.247Z,52.08
2023-05-08T09:35:57.332Z,52.25
2023-05-08T09:38:41.780Z,51.97
2023-05-08T09:41:15.255Z,52.29
2023-05-08T09:44:00.756Z,52.32
2023-05-08T09:46:27.762Z,51.83
2023-05-08T09:48:59.623Z,51.64
2023-05-08T09:51:29.439Z,51.49
2023-05-08T09:53:59.086Z,51.17
2023-05-08T09:56:38.839Z,50.92
2023-05-08T09:59:22.924Z,50.85
2023-05-08T10:01:49.937Z,50.59
2023-05-08T10:04:16.776Z,50.33
2023-05-08T10:06:43.886Z,50.09
2023-05-08T10:09:14.969Z,50.03
2023-05-08T10:11:54.513Z,50.16
2023-05-08T10:14:23.122Z,50.59
2023-05-08T10:16:53.755Z,50.05
2023-05-08T10:19:23.566Z,49.92
2023-05-08T10:21:53.591Z,49.98
2023-05-08T10:24:30.886Z,49.56
2023-05-08T10:27:17.824Z,49.75
2023-05-08T10:29:56.349Z,49.27
2023-05-08T10:32:24.471Z,49.09
2023-05-08T10:34:59.457Z,49.26
2023-05-08T10:37:30.137Z,49.30
2023-05-08T10:39:58.699Z,48.90
2023-05-08T10:42:26.363Z,48.91
2023-05-08T10:44:54.517Z,48.73
2023-05-08T10:48:11.260Z,49.21
2023-05-08T10:51:01.571Z,48.89
2023-05-08T10:53:51.334Z,48.70
2023-05-08T10:56:18.157Z,49.41
2023-05-08T10:58:44.937Z,48.90
2023-05-08T11:01:13.047Z,48.67
2023-05-08T11:03:46.296Z,48.75
2023-05-08T11:06:14.133Z,48.81
2023-05-08T11:08:51.117Z,48.86
2023-05-08T11:11:26.775Z,49.01
2023-05-08T11:14:14.943Z,48.80
2023-05-08T11:16:53.952Z,48.64
2023-05-08T11:19:23.081Z,48.82
2023-05-08T11:22:16.207Z,49.10
2023-05-08T11:24:49.106Z,49.03
2023-05-08T11:27:16.728Z,49.04
2023-05-08T11:29:44.903Z,49.15
2023-05-08T11:32:11.981Z,49.61
2023-05-08T11:34:41.880Z,49.65
2023-05-08T11:37:19.055Z,50.07
2023-05-08T11:39:46.884Z,49.85
2023-05-08T11:42:26.699Z,50.26
2023-05-08T11:45:13.874Z,50.90
2023-05-08T11:47:45.369Z,51.17
2023-05-08T11:50:13.763Z,50.97
2023-05-08T11:52:43.198Z,51.75
2023-05-08T11:55:12.031Z,51.08
2023-05-08T11:57:38.878Z,51.55
2023-05-08T12:00:11.564Z,50.92
2023-05-08T12:02:41.862Z,50.22
2023-05-08T12:05:09.859Z,50.84
2023-05-08T12:07:44.736Z,50.07
2023-05-08T12:10:12.311Z,50.57
2023-05-08T12:12:41.186Z,49.56
2023-05-08T12:15:12.180Z,48.74
2023-05-08T12:17:39.155Z,48.29
2023-05-08T12:20:18.276Z,47.73
2023-05-08T12:22:53.075Z,48.05
2023-05-08T12:25:20.451Z,47.73
2023-05-08T12:27:47.563Z,47.82
2023-05-08T12:30:16.502Z,46.77
2023-05-08T12:32:44.329Z,46.72
2023-05-08T12:35:13.169Z,46.53
2023-05-08T12:37:40.558Z,46.20
2023-05-08T12:40:24.602Z,46.95
2023-05-08T12:42:51.740Z,46.68
2023-05-08T12:45:28.128Z,46.72
2023-05-08T12:48:03.603Z,46.20
2023-05-08T12:50:41.984Z,45.29
2023-05-08T12:53:14.646Z,45.69
2023-05-08T12:55:55.081Z,45.41
2023-05-08T12:58:33.952Z,45.16
2023-05-08T13:01:13.223Z,45.03
2023-05-08T13:03:41.313Z,44.64
2023-05-08T13:06:21.126Z,44.70
2023-05-08T13:08:57.612Z,44.72
2023-05-08T13:11:32.963Z,44.47
2023-05-08T13:14:00.262Z,44.49
2023-05-08T13:16:27.284Z,44.33
2023-05-08T13:18:54.141Z,44.04
2023-05-08T13:21:20.997Z,44.39
2023-05-08T13:23:47.814Z,44.72
2023-05-08T13:26:14.597Z,44.88
2023-05-08T13:28:41.391Z,44.51
2023-05-08T13:31:08.166Z,44.72
2023-05-08T13:33:35.221Z,44.88
2023-05-08T13:36:02.173Z,44.69
2023-05-08T13:38:28.981Z,44.98
2023-05-08T13:40:56.051Z,45.00
2023-05-08T13:43:22.870Z,45.41
2023-05-08T13:45:49.690Z,45.27
2023-05-08T13:48:16.512Z,45.48
2023-05-08T13:50:43.308Z,45.67
2023-05-08T13:53:10.112Z,45.84
2023-05-08T13:55:37.449Z,46.20
2023-05-08T13:58:04.260Z,46.43
2023-05-08T14:00:31.094Z,46.75
2023-05-08T14:02:57.996Z,46.85
2023-05-08T14:05:24.858Z,46.91
2023-05-08T14:07:51.639Z,47.03
2023-05-08T14:10:18.493Z,47.03
2023-05-08T14:12:46.481Z,47.28
2023-05-08T14:15:13.542Z,46.87
2023-05-08T14:17:41.798Z,47.10
2023-05-08T14:20:11.586Z,47.13
2023-05-08T14:22:38.964Z,47.17
2023-05-08T14:25:06.892Z,47.28
2023-05-08T14:27:33.717Z,47.39
2023-05-08T14:30:00.506Z,47.45
2023-05-08T14:32:27.410Z,47.39
2023-05-08T14:34:54.196Z,47.39
2023-05-08T14:37:20.993Z,47.52
2023-05-08T14:39:47.842Z,47.50
2023-05-08T14:42:22.987Z,47.46
2023-05-08T14:44:51.240Z,47.99
2023-05-08T14:47:18.168Z,48.11
2023-05-08T14:49:44.988Z,48.36
2023-05-08T14:52:11.766Z,48.73
2023-05-08T14:54:38.707Z,48.88
2023-05-08T14:57:06.191Z,48.96
2023-05-08T14:59:33.043Z,49.02
2023-05-08T15:01:59.919Z,49.41
2023-05-08T15:04:26.899Z,49.65
2023-05-08T15:06:53.748Z,49.62
2023-05-08T15:09:20.524Z,49.79
2023-05-08T15:11:47.314Z,50.00
2023-05-08T15:14:14.135Z,50.03
2023-05-08T15:16:40.964Z,50.18
2023-05-08T15:19:09.386Z,50.26
2023-05-08T15:21:36.498Z,50.83
2023-05-08T15:24:03.399Z,50.65
2023-05-08T15:26:30.225Z,50.79
2023-05-08T15:28:57.041Z,50.70
2023-05-08T15:31:23.855Z,50.95
2023-05-08T15:33:50.880Z,50.95
2023-05-08T15:36:17.720Z,51.39
2023-05-08T15:38:44.580Z,51.50
2023-05-08T15:41:14.564Z,51.37
2023-05-08T15:46:11.232Z,51.34
2023-05-08T15:48:38.202Z,51.56
2023-05-08T15:51:05.059Z,51.72
2023-05-08T15:53:34.075Z,51.56
2023-05-08T15:56:00.977Z,51.48
2023-05-08T15:58:27.787Z,51.68
2023-05-08T16:00:54.882Z,52.07
2023-05-08T16:03:21.992Z,51.99
2023-05-08T16:05:49.442Z,51.64
2023-05-08T16:08:16.278Z,52.03
2023-05-08T16:10:43.136Z,52.22
2023-05-08T16:13:09.985Z,52.03
2023-05-08T16:15:36.860Z,51.71
2023-05-08T16:18:03.995Z,52.22
2023-05-08T16:20:32.099Z,52.25
2023-05-08T16:23:00.464Z,52.24
2023-05-08T16:25:27.321Z,52.18
2023-05-08T16:27:54.246Z,52.39
2023-05-08T16:30:21.083Z,52.21
2023-05-08T16:32:48.064Z,52.15
2023-05-08T16:35:15.450Z,51.89
2023-05-08T16:37:42.970Z,52.02
2023-05-08T16:40:11.346Z,51.83
2023-05-08T16:42:38.501Z,51.82
2023-05-08T16:45:06.387Z,51.72
2023-05-08T16:47:34.859Z,51.33
2023-05-08T16:50:01.895Z,51.74
2023-05-08T16:52:29.040Z,51.72
2023-05-08T16:54:55.944Z,51.69
2023-05-08T16:57:22.788Z,51.62
2023-05-08T16:59:49.643Z,51.73
2023-05-08T17:02:18.682Z,51.88
2023-05-08T17:04:47.067Z,51.53
2023-05-08T17:07:15.005Z,51.69
2023-05-08T17:09:42.361Z,51.47
2023-05-08T17:12:09.760Z,51.35
2023-05-08T17:14:39.117Z,51.66
2023-05-08T17:17:06.345Z,51.61
2023-05-08T17:19:33.269Z,51.74
2023-05-08T17:22:00.233Z,51.67
2023-05-08T17:24:27.460Z,51.54
2023-05-08T17:26:54.295Z,51.48
2023-05-08T17:29:21.140Z,51.17
2023-05-08T17:31:48.104Z,50.68
2023-05-08T17:34:15.229Z,50.19
2023-05-08T17:36:42.262Z,49.57
2023-05-08T17:39:09.168Z,49.37
2023-05-08T17:41:36.003Z,49.03
2023-05-08T17:44:04.106Z,48.99
2023-05-08T17:46:30.923Z,48.66
2023-05-08T17:48:57.722Z,48.37
2023-05-08T17:51:25.680Z,48.30
2023-05-08T17:53:53.074Z,48.44
2023-05-08T17:56:23.042Z,48.59
2023-05-08T17:58:51.780Z,48.61
2023-05-08T18:01:19.792Z,48.94
2023-05-08T18:03:48.272Z,48.95
2023-05-08T18:06:18.685Z,49.10
2023-05-08T18:08:46.688Z,49.25
2023-05-08T18:11:23.051Z,49.60
2023-05-08T18:13:52.272Z,49.75
2023-05-08T18:16:21.479Z,49.90
2023-05-08T18:18:49.449Z,49.95
2023-05-08T18:21:16.455Z,50.66
2023-05-08T18:23:43.339Z,50.24
2023-05-08T18:26:14.759Z,50.37
2023-05-08T18:28:41.924Z,50.26
2023-05-08T18:31:08.780Z,50.43
2023-05-08T18:33:36.928Z,50.35
2023-05-08T18:36:07.413Z,50.42
2023-05-08T18:38:34.961Z,50.56
2023-05-08T18:41:06.043Z,50.86
2023-05-08T18:43:33.197Z,50.82
2023-05-08T18:46:00.671Z,50.92
2023-05-08T18:48:27.669Z,51.27
2023-05-08T18:50:58.229Z,51.13
2023-05-08T18:53:25.183Z,51.34
2023-05-08T18:55:52.874Z,51.29
2023-05-08T18:58:19.849Z,51.29
2023-05-08T19:00:46.790Z,51.61
2023-05-08T19:03:14.029Z,51.51
2023-05-08T19:05:41.842Z,51.86
2023-05-08T19:08:08.696Z,51.94
2023-05-08T19:10:35.503Z,51.87
2023-05-08T19:13:02.375Z,51.94
2023-05-08T19:15:29.300Z,51.97
2023-05-08T19:17:56.227Z,51.87
2023-05-08T19:20:23.135Z,51.97
2023-05-08T19:22:50.013Z,52.17
2023-05-08T19:25:16.895Z,52.45
2023-05-08T19:27:43.715Z,52.36
2023-05-08T19:30:11.153Z,52.34
2023-05-08T19:32:38.040Z,52.18
2023-05-08T19:35:06.485Z,52.50
2023-05-08T19:37:33.266Z,52.24
2023-05-08T19:40:00.190Z,52.35
2023-05-08T19:42:27.014Z,52.38
2023-05-08T19:44:53.786Z,52.40
2023-05-08T19:47:20.690Z,52.66
2023-05-08T19:49:47.508Z,52.98
2023-05-08T19:52:14.315Z,52.78
2023-05-08T19:54:41.234Z,52.89
2023-05-08T19:57:08.040Z,52.83
2023-05-08T19:59:34.870Z,53.28
2023-05-08T20:02:02.024Z,53.13
2023-05-08T20:04:29.164Z,53.38
2023-05-08T20:06:56.055Z,53.25
2023-05-08T20:09:23.873Z,53.14
2023-05-08T20:11:50.709Z,53.07
2023-05-08T20:14:17.506Z,53.47
2023-05-08T20:16:44.456Z,53.13
2023-05-08T20:19:11.393Z,53.27
2023-05-08T20:21:38.207Z,53.57
2023-05-08T20:24:05.705Z,53.59
2023-05-08T20:26:32.724Z,53.48
2023-05-08T20:29:00.979Z,53.70
2023-05-08T20:31:29.415Z,53.65
2023-05-08T20:33:56.827Z,53.67
2023-05-08T20:36:23.614Z,53.82
2023-05-08T20:38:51.144Z,53.69
2023-05-08T20:41:17.914Z,53.92
2023-05-08T20:43:45.214Z,53.54
2023-05-08T20:46:12.041Z,53.79
2023-05-08T20:48:38.860Z,53.82
2023-05-08T20:51:05.819Z,53.80
2023-05-08T20:53:32.721Z,53.87
2023-05-08T20:56:01.607Z,53.90
2023-05-08T20:58:28.435Z,53.87
2023-05-08T21:00:55.303Z,53.88
2023-05-08T21:03:22.413Z,53.88
2023-05-08T21:05:49.294Z,53.82
2023-05-08T21:08:16.163Z,54.23
2023-05-08T21:10:42.961Z,54.19
2023-05-08T21:13:09.850Z,54.22
2023-05-08T21:15:36.738Z,54.34
2023-05-08T21:18:03.694Z,54.28
2023-05-08T21:20:33.756Z,54.58
2023-05-08T21:23:00.567Z,54.82
2023-05-08T21:25:27.372Z,54.77
2023-05-08T21:27:55.381Z,55.20
2023-05-08T21:30:22.425Z,55.22
2023-05-08T21:32:49.295Z,55.24
2023-05-08T21:35:16.462Z,55.36
2023-05-08T21:37:43.476Z,55.17
2023-05-08T21:40:10.566Z,55.23
2023-05-08T21:42:38.660Z,55.33
2023-05-08T21:45:06.219Z,55.38
2023-05-08T21:47:33.066Z,55.50
2023-05-08T21:49:59.894Z,55.27
2023-05-08T21:52:26.786Z,55.21
2023-05-08T21:54:53.724Z,55.20
2023-05-08T21:57:20.510Z,55.33
2023-05-08T21:59:49.055Z,55.23
2023-05-08T22:02:16.434Z,55.00
2023-05-08T22:04:43.293Z,55.07
2023-05-08T22:07:10.099Z,55.25
2023-05-08T22:09:36.990Z,55.13
2023-05-08T22:12:04.002Z,54.97
2023-05-08T22:14:30.827Z,55.02
2023-05-08T22:16:57.646Z,55.38
2023-05-08T22:19:24.479Z,55.12
2023-05-08T22:21:51.416Z,55.10
2023-05-08T22:24:19.056Z,55.39
2023-05-08T22:26:46.032Z,55.29
2023-05-08T22:29:12.890Z,55.49
2023-05-08T22:31:39.712Z,55.46
2023-05-08T22:34:06.647Z,55.51
2023-05-08T22:36:33.445Z,55.59
2023-05-08T22:39:00.973Z,55.36
2023-05-08T22:41:30.427Z,55.58
2023-05-08T22:43:57.394Z,55.40
2023-05-08T22:46:24.608Z,55.32
2023-05-08T22:48:54.344Z,55.49
2023-05-08T22:51:21.166Z,55.09
2023-05-08T22:53:48.045Z,55.33
2023-05-08T22:56:14.854Z,55.31
2023-05-08T22:58:41.627Z,55.18
2023-05-08T23:01:08.537Z,55.18
2023-05-08T23:03:35.807Z,55.12
2023-05-08T23:06:02.735Z,55.04
2023-05-08T23:08:29.518Z,55.16
2023-05-08T23:10:56.309Z,55.09
2023-05-08T23:13:23.164Z,55.16
2023-05-08T23:15:49.955Z,54.99
2023-05-08T23:18:16.758Z,55.06
2023-05-08T23:20:43.531Z,55.29
2023-05-08T23:23:10.616Z,55.11
2023-05-08T23:25:37.633Z,55.29
2023-05-08T23:28:04.462Z,55.30
2023-05-08T23:30:31.231Z,55.47
2023-05-08T23:32:58.094Z,55.42
2023-05-08T23:35:25.021Z,55.57
2023-05-08T23:37:51.844Z,55.52
2023-05-08T23:40:18.617Z,55.52
2023-05-08T23:42:45.397Z,55.46
2023-05-08T23:45:12.558Z,55.59
2023-05-08T23:47:39.595Z,55.56
2023-05-08T23:50:07.014Z,55.53
2023-05-08T23:52:33.790Z,55.38
2023-05-08T23:55:00.655Z,55.86
2023-05-08T23:57:27.457Z,55.57
2023-05-08T23:59:54.314Z,55.52
